Time;durP1;ratioP1;P1;durP2;ratioP2;P2;SDS_P1;SDS_P2;PMS_P1;PMS_P2;Temp;Humidity;BMP_temperature;BMP_pressure;BME280_temperature;BME280_humidity;BME280_pressure;Samples;Min_cycle;Max_cycle;Signal;HPM_P1;HPM_P2
2021/08/14 00:02:11;;;;;;;15.23;6.33;;;20.60;99.90;;;;;;5129312;28;20191;-86
2021/08/14 00:04:37;;;;;;;12.13;6.27;;;20.60;99.90;;;;;;5123195;28;20207;-86
2021/08/14 00:07:03;;;;;;;15.50;7.00;;;20.50;99.90;;;;;;5122950;28;20258;-86
2021/08/14 00:09:29;;;;;;;13.30;6.23;;;20.50;99.90;;;;;;5123514;28;20224;-87
2021/08/14 00:11:55;;;;;;;11.03;6.20;;;20.50;99.90;;;;;;5123398;28;20175;-87
2021/08/14 00:14:20;;;;;;;11.33;6.30;;;20.50;99.90;;;;;;5122358;28;20235;-87
2021/08/14 00:16:46;;;;;;;11.70;6.23;;;20.40;99.90;;;;;;5122992;28;20195;-87
2021/08/14 00:19:12;;;;;;;14.23;6.40;;;20.50;99.90;;;;;;5123825;28;20644;-87
2021/08/14 00:21:38;;;;;;;11.80;5.97;;;20.50;99.90;;;;;;5122985;28;20187;-87
2021/08/14 00:24:04;;;;;;;11.13;6.40;;;20.40;99.90;;;;;;5124239;28;20214;-87
2021/08/14 00:26:29;;;;;;;11.87;6.70;;;20.50;99.90;;;;;;5122685;28;20215;-86
2021/08/14 00:28:55;;;;;;;11.77;6.07;;;20.50;99.90;;;;;;5122760;28;20218;-87
2021/08/14 00:31:21;;;;;;;13.67;6.67;;;20.50;99.90;;;;;;5123516;28;20187;-86
2021/08/14 00:33:47;;;;;;;18.37;6.83;;;20.50;99.90;;;;;;5123255;28;20269;-87
2021/08/14 00:36:13;;;;;;;12.67;6.50;;;20.50;99.90;;;;;;5123674;28;20222;-87
2021/08/14 00:38:38;;;;;;;10.40;6.53;;;20.50;99.90;;;;;;5124268;27;20171;-87
2021/08/14 00:41:04;;;;;;;14.00;6.37;;;20.50;99.90;;;;;;5122447;28;20179;-87
2021/08/14 00:43:30;;;;;;;15.23;7.17;;;20.50;99.90;;;;;;5124285;28;20241;-87
2021/08/14 00:46:00;;;;;;;8.90;6.73;;;20.50;99.90;;;;;;5122964;28;20215;-87
2021/08/14 00:48:26;;;;;;;10.70;6.33;;;20.50;99.90;;;;;;5124232;28;20171;-87
2021/08/14 00:50:52;;;;;;;12.03;6.60;;;20.40;99.90;;;;;;5124425;28;20680;-87
2021/08/14 00:53:19;;;;;;;14.60;7.47;;;20.40;99.90;;;;;;5123323;28;20180;-87
2021/08/14 00:55:45;;;;;;;12.50;6.37;;;20.40;99.90;;;;;;5125305;28;20195;-87
2021/08/14 00:58:11;;;;;;;8.40;6.40;;;20.40;99.90;;;;;;5124275;28;20537;-86
2021/08/14 01:00:38;;;;;;;10.23;6.97;;;20.30;99.90;;;;;;5124985;28;20270;-87
2021/08/14 01:03:04;;;;;;;13.67;7.30;;;20.30;99.90;;;;;;5124225;28;20175;-86
2021/08/14 01:05:30;;;;;;;10.53;5.90;;;20.20;99.90;;;;;;5124537;28;20209;-87
2021/08/14 01:07:55;;;;;;;12.17;6.87;;;20.20;99.90;;;;;;5126018;27;20587;-87
2021/08/14 01:10:23;;;;;;;10.67;6.30;;;20.20;99.90;;;;;;5132191;28;20210;-87
2021/08/14 01:12:54;;;;;;;12.07;6.53;;;20.20;99.90;;;;;;5139098;28;20261;-86
2021/08/14 01:15:19;;;;;;;13.67;7.27;;;20.10;99.90;;;;;;5137632;28;20172;-87
2021/08/14 01:17:45;;;;;;;13.27;6.50;;;20.00;99.90;;;;;;5123624;28;20178;-87
2021/08/14 01:20:12;;;;;;;12.60;6.57;;;20.00;99.90;;;;;;5123449;28;20177;-87
2021/08/14 01:22:38;;;;;;;8.63;6.63;;;20.00;99.90;;;;;;5122192;28;20264;-86
2021/08/14 01:25:06;;;;;;;12.73;6.53;;;20.00;99.90;;;;;;5121218;28;20206;-87
2021/08/14 01:27:34;;;;;;;9.97;6.87;;;20.00;99.90;;;;;;5121634;28;20203;-87
2021/08/14 01:30:00;;;;;;;11.60;6.77;;;20.00;99.90;;;;;;5122626;28;20635;-87
2021/08/14 01:32:26;;;;;;;10.13;7.10;;;20.00;99.90;;;;;;5122906;28;20180;-87
2021/08/14 01:34:52;;;;;;;12.33;6.83;;;20.00;99.90;;;;;;5121536;28;20190;-86
2021/08/14 01:37:18;;;;;;;12.47;7.27;;;20.00;99.90;;;;;;5122581;28;20284;-86
2021/08/14 01:39:43;;;;;;;13.43;7.07;;;20.00;99.90;;;;;;5120277;28;20185;-86
2021/08/14 01:42:09;;;;;;;11.70;6.33;;;20.00;99.90;;;;;;5120367;28;20183;-86
2021/08/14 01:44:36;;;;;;;10.63;6.53;;;19.90;99.90;;;;;;5119898;28;20208;-87
2021/08/14 01:47:02;;;;;;;11.93;6.30;;;19.90;99.90;;;;;;5119374;28;20205;-86
2021/08/14 01:49:28;;;;;;;12.63;6.90;;;19.90;99.90;;;;;;5119238;28;20638;-86
2021/08/14 01:51:54;;;;;;;12.20;6.10;;;19.90;99.90;;;;;;5118607;28;20323;-86
2021/08/14 01:54:20;;;;;;;13.70;6.00;;;19.90;99.90;;;;;;5119512;28;20264;-87
2021/08/14 01:56:46;;;;;;;10.37;6.30;;;19.80;99.90;;;;;;5117409;28;20199;-86
2021/08/14 01:59:12;;;;;;;10.20;6.23;;;19.80;99.90;;;;;;5118514;28;20189;-86
2021/08/14 02:01:38;;;;;;;14.07;6.47;;;19.80;99.90;;;;;;5124534;28;20659;-86
2021/08/14 02:04:04;;;;;;;11.13;6.33;;;19.70;99.90;;;;;;5140396;28;20175;-84
2021/08/14 02:06:31;;;;;;;13.17;5.97;;;19.70;99.90;;;;;;5131772;28;20260;-87
2021/08/14 02:08:56;;;;;;;13.83;6.50;;;19.70;99.90;;;;;;5121073;28;20187;-87
2021/08/14 02:11:35;;;;;;;13.43;6.67;;;19.70;99.90;;;;;;5120924;28;20214;-87
2021/08/14 02:14:02;;;;;;;14.57;6.43;;;19.70;99.90;;;;;;5120814;28;20173;-87
2021/08/14 02:16:29;;;;;;;12.77;5.87;;;19.60;99.90;;;;;;5121947;28;20192;-87
2021/08/14 02:18:56;;;;;;;10.37;5.80;;;19.60;99.90;;;;;;5119708;28;20170;-87
2021/08/14 02:21:22;;;;;;;14.53;6.10;;;19.60;99.90;;;;;;5120949;28;20232;-87
2021/08/14 02:23:48;;;;;;;14.27;6.37;;;19.50;99.90;;;;;;5120000;28;20172;-87
2021/08/14 02:26:13;;;;;;;9.40;6.03;;;19.50;99.90;;;;;;5121714;28;20252;-87
2021/08/14 02:28:39;;;;;;;10.83;5.77;;;19.40;99.90;;;;;;5120234;28;20263;-87
2021/08/14 02:31:06;;;;;;;9.83;5.90;;;19.40;99.90;;;;;;5119798;28;20185;-87
2021/08/14 02:33:32;;;;;;;11.27;6.03;;;19.40;99.90;;;;;;5120102;28;20201;-87
2021/08/14 02:35:59;;;;;;;11.17;6.63;;;19.40;99.90;;;;;;5119563;28;20343;-87
2021/08/14 02:38:24;;;;;;;15.40;7.10;;;19.40;99.90;;;;;;5120008;28;20176;-87
2021/08/14 02:40:50;;;;;;;14.80;6.53;;;19.30;99.90;;;;;;5119387;28;20272;-87
2021/08/14 02:43:17;;;;;;;10.90;6.20;;;19.40;99.90;;;;;;5121231;28;20175;-87
2021/08/14 02:45:44;;;;;;;15.70;6.37;;;19.30;99.90;;;;;;5119160;28;20236;-87
2021/08/14 02:48:10;;;;;;;13.83;6.70;;;19.30;99.90;;;;;;5119439;28;20543;-87
2021/08/14 02:50:37;;;;;;;10.67;5.97;;;19.30;99.90;;;;;;5119315;28;20640;-87
2021/08/14 02:53:03;;;;;;;11.73;5.73;;;19.30;99.90;;;;;;5119483;28;20274;-86
2021/08/14 02:55:28;;;;;;;12.20;6.57;;;19.30;99.90;;;;;;5119453;28;20629;-87
2021/08/14 02:57:54;;;;;;;9.60;6.47;;;19.20;99.90;;;;;;5119780;28;20186;-87
2021/08/14 03:00:19;;;;;;;10.07;5.87;;;19.20;99.90;;;;;;5119625;28;20195;-87
2021/08/14 03:02:45;;;;;;;9.93;6.70;;;19.30;99.90;;;;;;5119069;28;20654;-87
2021/08/14 03:05:11;;;;;;;14.30;6.57;;;19.20;99.90;;;;;;5118850;28;20209;-87
2021/08/14 03:07:39;;;;;;;14.67;6.27;;;19.20;99.90;;;;;;5104098;28;20213;-87
2021/08/14 03:10:05;;;;;;;9.33;6.27;;;19.20;99.90;;;;;;5118791;28;20634;-87
2021/08/14 03:12:31;;;;;;;13.73;6.03;;;19.20;99.90;;;;;;5119991;28;20176;-87
2021/08/14 03:14:57;;;;;;;15.13;6.63;;;19.20;99.90;;;;;;5118989;28;20188;-87
2021/08/14 03:17:22;;;;;;;12.90;5.90;;;19.20;99.90;;;;;;5118659;28;20204;-87
2021/08/14 03:19:48;;;;;;;8.13;5.50;;;19.20;99.90;;;;;;5119081;28;20560;-87
2021/08/14 03:22:14;;;;;;;11.73;6.50;;;19.20;99.90;;;;;;5118513;28;20187;-87
2021/08/14 03:24:40;;;;;;;10.47;6.77;;;19.20;99.90;;;;;;5119490;28;20239;-87
2021/08/14 03:27:06;;;;;;;14.07;7.07;;;19.20;99.90;;;;;;5118406;28;20282;-87
2021/08/14 03:29:32;;;;;;;16.60;6.70;;;19.20;99.90;;;;;;5117718;28;20208;-87
2021/08/14 03:31:58;;;;;;;8.50;5.93;;;19.10;99.90;;;;;;5117793;28;20171;-87
2021/08/14 03:34:24;;;;;;;10.23;6.57;;;19.10;99.90;;;;;;5117887;28;20239;-87
2021/08/14 03:36:49;;;;;;;14.00;6.50;;;19.10;99.90;;;;;;5117280;28;20293;-87
2021/08/14 03:39:15;;;;;;;13.93;6.37;;;19.10;99.90;;;;;;5117478;28;20187;-87
2021/08/14 03:41:41;;;;;;;12.40;6.67;;;19.10;99.90;;;;;;5117451;28;20640;-87
2021/08/14 03:44:07;;;;;;;14.93;6.93;;;19.10;99.90;;;;;;5116686;28;20180;-87
2021/08/14 03:46:32;;;;;;;15.73;6.57;;;19.10;99.90;;;;;;5117647;28;20222;-87
2021/08/14 03:48:58;;;;;;;15.57;6.47;;;19.00;99.90;;;;;;5118170;28;20710;-87
2021/08/14 03:51:24;;;;;;;16.77;6.63;;;19.00;99.90;;;;;;5116571;28;20527;-87
2021/08/14 03:53:49;;;;;;;11.40;6.80;;;19.00;99.90;;;;;;5115958;28;20203;-87
2021/08/14 03:56:15;;;;;;;11.47;6.67;;;18.90;99.90;;;;;;5115965;28;20199;-86
2021/08/14 03:58:41;;;;;;;15.47;6.13;;;18.90;99.90;;;;;;5116196;28;20233;-87
2021/08/14 04:01:07;;;;;;;11.97;6.93;;;18.90;99.90;;;;;;5116959;28;20191;-87
2021/08/14 04:03:33;;;;;;;12.37;6.97;;;18.90;99.90;;;;;;5115009;28;20270;-86
2021/08/14 04:05:59;;;;;;;13.77;6.80;;;18.90;99.90;;;;;;5119610;28;20241;-86
2021/08/14 04:08:25;;;;;;;13.53;6.67;;;18.90;99.90;;;;;;5135492;28;20198;-86
2021/08/14 04:10:51;;;;;;;16.13;7.07;;;18.90;99.90;;;;;;5136224;28;20192;-87
2021/08/14 04:13:17;;;;;;;11.00;6.07;;;18.80;99.90;;;;;;5120708;28;20191;-87
2021/08/14 04:15:43;;;;;;;11.00;6.77;;;18.80;99.90;;;;;;5119875;28;20661;-87
2021/08/14 04:18:09;;;;;;;17.67;6.33;;;18.70;99.90;;;;;;5119884;28;20197;-87
2021/08/14 04:20:34;;;;;;;12.83;6.57;;;18.70;99.90;;;;;;5119825;28;20192;-87
2021/08/14 04:23:00;;;;;;;13.17;6.30;;;18.70;99.90;;;;;;5120503;28;20176;-87
2021/08/14 04:25:26;;;;;;;12.00;6.50;;;18.70;99.90;;;;;;5133558;28;20287;-87
2021/08/14 04:27:51;;;;;;;12.13;6.43;;;18.60;99.90;;;;;;5137747;28;20177;-87
2021/08/14 04:30:17;;;;;;;13.30;6.20;;;18.50;99.90;;;;;;5130340;28;20188;-87
2021/08/14 04:32:43;;;;;;;14.13;6.73;;;18.50;99.90;;;;;;5118939;28;20186;-87
2021/08/14 04:35:10;;;;;;;11.67;5.97;;;18.50;99.90;;;;;;5127809;28;20200;-87
2021/08/14 04:37:37;;;;;;;14.70;7.20;;;18.50;99.90;;;;;;5133409;28;20192;-87
2021/08/14 04:40:04;;;;;;;12.40;6.50;;;18.50;99.90;;;;;;5121235;28;20183;-87
2021/08/14 04:42:30;;;;;;;10.17;6.73;;;18.50;99.90;;;;;;5119377;28;20186;-87
2021/08/14 04:44:55;;;;;;;10.83;7.10;;;18.50;99.90;;;;;;5123149;28;20200;-87
2021/08/14 04:47:21;;;;;;;12.03;6.90;;;18.50;99.90;;;;;;5121315;28;20335;-87
2021/08/14 04:49:47;;;;;;;12.43;6.53;;;18.50;99.90;;;;;;5121455;28;20191;-87
2021/08/14 04:52:13;;;;;;;14.70;6.47;;;18.50;99.90;;;;;;5121222;28;20180;-87
2021/08/14 04:54:38;;;;;;;10.20;6.80;;;18.50;99.90;;;;;;5121729;28;20179;-87
2021/08/14 04:57:04;;;;;;;13.67;6.67;;;18.50;99.90;;;;;;5121856;28;20200;-87
2021/08/14 04:59:30;;;;;;;14.67;7.23;;;18.50;99.90;;;;;;5121756;28;20263;-87
2021/08/14 05:01:57;;;;;;;10.40;6.50;;;18.50;99.90;;;;;;5122842;28;20232;-87
2021/08/14 05:04:23;;;;;;;12.30;7.60;;;18.50;99.90;;;;;;5122617;28;20250;-87
2021/08/14 05:06:50;;;;;;;11.97;6.53;;;18.60;99.90;;;;;;5123685;28;20195;-87
2021/08/14 05:09:16;;;;;;;9.70;6.80;;;18.60;99.90;;;;;;5125851;28;20201;-87
2021/08/14 05:11:42;;;;;;;12.97;6.87;;;18.60;99.90;;;;;;5125114;28;20177;-87
2021/08/14 05:14:08;;;;;;;12.93;7.10;;;18.60;99.90;;;;;;5124703;28;20197;-87
2021/08/14 05:16:36;;;;;;;13.83;6.47;;;18.60;99.90;;;;;;5123456;28;20552;-87
2021/08/14 05:19:05;;;;;;;13.50;6.53;;;18.70;99.90;;;;;;5124363;28;20176;-87
2021/08/14 05:21:31;;;;;;;9.97;7.03;;;18.70;99.90;;;;;;5124499;28;20239;-87
2021/08/14 05:23:56;;;;;;;15.87;6.80;;;18.70;99.90;;;;;;5124062;28;20203;-87
2021/08/14 05:26:22;;;;;;;11.17;7.07;;;18.70;99.90;;;;;;5124088;28;20270;-87
2021/08/14 05:28:48;;;;;;;11.60;7.27;;;18.80;99.90;;;;;;5124896;28;20175;-87
2021/08/14 05:31:14;;;;;;;12.63;7.27;;;18.80;99.90;;;;;;5124501;28;20179;-87
2021/08/14 05:33:40;;;;;;;14.00;6.77;;;18.90;99.90;;;;;;5124742;28;20172;-87
2021/08/14 05:36:08;;;;;;;11.83;7.83;;;18.90;99.90;;;;;;5124294;28;20256;-87
2021/08/14 05:38:35;;;;;;;15.00;7.53;;;19.00;99.90;;;;;;5123901;28;20172;-87
2021/08/14 05:41:01;;;;;;;15.10;7.57;;;19.00;99.90;;;;;;5123872;28;20251;-87
2021/08/14 05:43:26;;;;;;;12.73;7.00;;;19.10;99.90;;;;;;5123176;28;20208;-87
2021/08/14 05:45:52;;;;;;;15.83;7.30;;;19.10;99.90;;;;;;5119749;28;20243;-86
2021/08/14 05:48:18;;;;;;;11.47;7.57;;;19.10;99.90;;;;;;5119482;28;20171;-87
2021/08/14 05:50:45;;;;;;;13.40;8.10;;;19.20;99.90;;;;;;5120676;28;20496;-87
2021/08/14 05:53:11;;;;;;;11.30;6.90;;;19.20;99.90;;;;;;5119036;28;20314;-87
2021/08/14 05:55:36;;;;;;;13.00;7.53;;;19.30;99.90;;;;;;5119807;28;20295;-87
2021/08/14 05:58:02;;;;;;;11.13;7.40;;;19.30;99.90;;;;;;5119744;28;20184;-87
2021/08/14 06:00:28;;;;;;;14.87;7.67;;;19.40;99.90;;;;;;5119504;28;20196;-87
2021/08/14 06:02:54;;;;;;;13.73;7.57;;;19.40;99.90;;;;;;5119292;28;20177;-87
2021/08/14 06:05:20;;;;;;;12.40;7.77;;;19.50;99.90;;;;;;5118791;28;20208;-87
2021/08/14 06:07:49;;;;;;;13.80;7.73;;;19.60;99.90;;;;;;5118491;28;20176;-86
2021/08/14 06:10:17;;;;;;;13.67;6.80;;;19.70;99.90;;;;;;5121542;28;20261;-86
2021/08/14 06:12:43;;;;;;;15.50;7.23;;;19.70;99.90;;;;;;5134663;28;20176;-88
2021/08/14 06:15:09;;;;;;;10.73;6.93;;;19.80;99.90;;;;;;5141018;28;20162;-85
2021/08/14 06:17:35;;;;;;;12.90;7.60;;;19.90;99.90;;;;;;5123913;28;20211;-87
2021/08/14 06:20:01;;;;;;;13.83;8.17;;;19.90;99.90;;;;;;5118686;28;20181;-87
2021/08/14 06:22:27;;;;;;;21.70;9.03;;;20.00;99.90;;;;;;5118904;28;20185;-87
2021/08/14 06:24:53;;;;;;;11.87;7.63;;;20.00;99.90;;;;;;5118852;28;20208;-87
2021/08/14 06:27:20;;;;;;;13.03;8.53;;;20.10;99.90;;;;;;5118470;28;20208;-87
2021/08/14 06:29:46;;;;;;;13.50;7.17;;;20.10;99.90;;;;;;5118372;28;20184;-87
2021/08/14 06:32:11;;;;;;;14.10;7.37;;;20.30;99.90;;;;;;5118797;28;20177;-86
2021/08/14 06:34:37;;;;;;;16.20;8.13;;;20.30;99.90;;;;;;5119051;28;20181;-87
2021/08/14 06:37:04;;;;;;;13.07;7.43;;;20.40;99.90;;;;;;5118082;28;20254;-87
2021/08/14 06:39:29;;;;;;;16.90;7.37;;;20.50;99.90;;;;;;5118575;28;20181;-87
2021/08/14 06:41:55;;;;;;;13.57;7.03;;;20.50;99.90;;;;;;5117797;28;20610;-87
2021/08/14 06:44:21;;;;;;;11.90;6.50;;;20.60;99.90;;;;;;5118406;28;20193;-88
2021/08/14 06:46:46;;;;;;;12.80;7.33;;;20.70;99.90;;;;;;5117721;28;20545;-87
2021/08/14 06:49:12;;;;;;;10.30;7.27;;;20.80;99.90;;;;;;5119049;28;20197;-87
2021/08/14 06:51:38;;;;;;;11.53;6.97;;;20.80;99.90;;;;;;5119797;28;20578;-87
2021/08/14 06:54:05;;;;;;;9.80;6.70;;;21.00;99.90;;;;;;5120765;28;20234;-87
2021/08/14 06:56:30;;;;;;;12.47;7.20;;;21.10;99.90;;;;;;5119112;28;20198;-87
2021/08/14 06:58:56;;;;;;;8.53;6.40;;;21.10;99.90;;;;;;5119190;28;20186;-87
2021/08/14 07:01:22;;;;;;;10.57;6.80;;;21.20;99.90;;;;;;5119098;28;20602;-87
2021/08/14 07:03:48;;;;;;;12.80;6.97;;;21.20;99.90;;;;;;5119060;28;20188;-87
2021/08/14 07:06:24;;;;;;;11.80;6.80;;;21.30;99.90;;;;;;5118610;28;20687;-87
2021/08/14 07:08:50;;;;;;;9.70;6.20;;;21.40;99.90;;;;;;5120705;28;20185;-87
2021/08/14 07:11:16;;;;;;;10.20;6.63;;;21.50;99.90;;;;;;5125825;28;20175;-87
2021/08/14 07:13:42;;;;;;;19.57;7.60;;;21.60;99.90;;;;;;5129846;28;20178;-87
2021/08/14 07:16:08;;;;;;;10.17;5.77;;;21.60;99.90;;;;;;5124980;28;20289;-87
2021/08/14 07:18:34;;;;;;;10.90;6.57;;;21.70;99.90;;;;;;5118901;28;20172;-87
2021/08/14 07:21:00;;;;;;;10.53;6.20;;;21.80;99.90;;;;;;5119711;28;20186;-87
2021/08/14 07:23:25;;;;;;;8.87;6.57;;;21.80;99.90;;;;;;5119761;28;20182;-87
2021/08/14 07:25:52;;;;;;;11.67;5.63;;;21.90;99.90;;;;;;5119438;28;20741;-87
2021/08/14 07:28:18;;;;;;;8.07;5.93;;;22.00;99.90;;;;;;5119694;28;20240;-87
2021/08/14 07:30:44;;;;;;;8.60;5.93;;;22.20;99.90;;;;;;5119920;28;20172;-87
2021/08/14 07:33:10;;;;;;;10.40;6.40;;;22.30;99.90;;;;;;5120177;28;20214;-87
2021/08/14 07:35:36;;;;;;;6.43;5.37;;;22.40;99.90;;;;;;5120834;28;20214;-88
2021/08/14 07:38:01;;;;;;;7.80;5.50;;;22.50;99.90;;;;;;5121401;28;20185;-87
2021/08/14 07:40:27;;;;;;;7.23;5.23;;;22.70;99.90;;;;;;5120967;28;20172;-87
2021/08/14 07:42:53;;;;;;;9.57;5.23;;;22.80;99.90;;;;;;5130353;28;20244;-87
2021/08/14 07:45:20;;;;;;;7.90;4.80;;;23.00;99.90;;;;;;5136438;28;20203;-88
2021/08/14 07:47:48;;;;;;;7.83;5.27;;;23.10;99.90;;;;;;5133020;28;20259;-88
2021/08/14 07:50:26;;;;;;;6.43;5.30;;;23.30;99.90;;;;;;5119098;28;20180;-87
2021/08/14 07:52:54;;;;;;;8.63;5.40;;;23.40;99.90;;;;;;5118385;28;20175;-87
2021/08/14 07:55:21;;;;;;;6.00;5.00;;;23.50;99.90;;;;;;5120430;27;20194;-87
2021/08/14 07:57:47;;;;;;;11.53;5.33;;;23.60;99.90;;;;;;5122726;28;20653;-86
2021/08/14 08:00:15;;;;;;;6.97;4.97;;;23.70;99.90;;;;;;5119193;28;20194;-87
2021/08/14 08:02:41;;;;;;;10.30;5.60;;;23.80;99.90;;;;;;5123318;28;20196;-87
2021/08/14 08:05:09;;;;;;;8.73;5.50;;;23.80;99.90;;;;;;5118189;28;20216;-87
2021/08/14 08:07:37;;;;;;;10.13;5.60;;;23.90;99.90;;;;;;5117565;28;20199;-88
2021/08/14 08:10:08;;;;;;;10.77;5.30;;;24.00;99.90;;;;;;5116819;28;20179;-87
2021/08/14 08:12:34;;;;;;;6.37;5.00;;;24.20;99.90;;;;;;5115683;28;20176;-87
2021/08/14 08:15:00;;;;;;;8.07;4.80;;;24.30;99.90;;;;;;5116116;28;20602;-86
2021/08/14 08:17:25;;;;;;;6.07;4.50;;;24.50;99.90;;;;;;5126637;28;20203;-87
2021/08/14 08:19:51;;;;;;;6.67;4.57;;;24.70;99.90;;;;;;5143255;28;20187;-86
2021/08/14 08:22:17;;;;;;;6.37;5.03;;;24.90;99.90;;;;;;5135228;28;20252;-86
2021/08/14 08:24:43;;;;;;;5.80;4.63;;;25.00;99.90;;;;;;5122816;28;20619;-87
2021/08/14 08:27:08;;;;;;;5.70;4.87;;;25.20;99.90;;;;;;5122894;28;20193;-87
2021/08/14 08:29:34;;;;;;;7.53;5.43;;;25.20;99.90;;;;;;5122483;28;20221;-87
2021/08/14 08:31:59;;;;;;;5.93;4.83;;;25.30;99.90;;;;;;5122437;28;20271;-87
2021/08/14 08:34:25;;;;;;;7.23;4.87;;;25.50;99.90;;;;;;5122028;28;20188;-88
2021/08/14 08:36:52;;;;;;;6.27;5.43;;;25.60;99.90;;;;;;5122234;28;20207;-87
2021/08/14 08:39:18;;;;;;;12.30;5.40;;;25.80;99.90;;;;;;5123266;28;20205;-88
2021/08/14 08:41:43;;;;;;;8.23;5.23;;;25.80;99.90;;;;;;5123080;28;20184;-87
2021/08/14 08:44:09;;;;;;;7.67;5.00;;;25.90;99.90;;;;;;5121994;28;20187;-88
2021/08/14 08:46:36;;;;;;;10.13;5.53;;;25.90;99.90;;;;;;5122483;28;20264;-87
2021/08/14 08:49:03;;;;;;;7.80;5.10;;;25.90;99.90;;;;;;5122681;28;20229;-87
2021/08/14 08:51:32;;;;;;;7.10;5.17;;;26.00;99.90;;;;;;5120915;28;20182;-87
2021/08/14 08:53:59;;;;;;;10.43;5.37;;;26.10;99.90;;;;;;5121077;28;20259;-87
2021/08/14 08:56:25;;;;;;;8.70;5.73;;;26.20;99.90;;;;;;5121539;28;20674;-87
2021/08/14 08:58:51;;;;;;;6.37;5.07;;;26.20;99.90;;;;;;5120949;28;20180;-88
2021/08/14 09:01:17;;;;;;;9.27;5.63;;;26.30;99.90;;;;;;5121944;28;20252;-87
2021/08/14 09:03:42;;;;;;;7.90;5.97;;;26.40;99.90;;;;;;5119772;28;20266;-87
2021/08/14 09:06:08;;;;;;;6.60;5.03;;;26.60;99.90;;;;;;5119922;28;20252;-87
2021/08/14 09:08:34;;;;;;;5.73;4.80;;;26.80;99.90;;;;;;5119634;28;20228;-87
2021/08/14 09:11:11;;;;;;;7.73;5.23;;;27.00;99.90;;;;;;5121169;28;20193;-88
2021/08/14 09:13:39;;;;;;;9.47;5.50;;;27.10;99.90;;;;;;5119848;28;20604;-88
2021/08/14 09:16:19;;;;;;;13.83;5.83;;;27.20;99.90;;;;;;5120204;28;20691;-87
2021/08/14 09:19:00;;;;;;;7.93;4.83;;;27.40;99.90;;;;;;5120554;28;20178;-87
2021/08/14 09:21:35;;;;;;;8.83;5.00;;;27.50;99.90;;;;;;5118801;28;20185;-87
2021/08/14 09:24:04;;;;;;;7.47;4.80;;;27.50;99.90;;;;;;5118593;28;20707;-87
2021/08/14 09:26:51;;;;;;;6.50;4.57;;;27.50;99.90;;;;;;5119143;28;20761;-88
2021/08/14 09:29:27;;;;;;;7.80;5.23;;;27.60;99.90;;;;;;5112628;28;20648;-87
2021/08/14 09:31:54;;;;;;;9.33;4.73;;;27.80;99.90;;;;;;5119558;28;20165;-88
2021/08/14 09:34:22;;;;;;;9.67;4.87;;;27.90;99.90;;;;;;5117642;28;20176;-88
2021/08/14 09:36:58;;;;;;;8.67;4.93;;;28.10;99.90;;;;;;5119174;28;20197;-87
2021/08/14 09:39:24;;;;;;;9.57;4.97;;;28.00;99.90;;;;;;5118179;28;20172;-87
2021/08/14 09:42:02;;;;;;;8.17;5.23;;;28.10;99.90;;;;;;5119225;28;20197;-88
2021/08/14 09:44:28;;;;;;;12.07;5.57;;;28.20;99.90;;;;;;5118018;28;20249;-87
2021/08/14 09:46:54;;;;;;;8.00;4.97;;;28.40;99.90;;;;;;5117677;28;20675;-85
2021/08/14 09:49:19;;;;;;;5.73;4.67;;;28.50;99.90;;;;;;5119258;28;20240;-88
2021/08/14 09:51:45;;;;;;;10.60;5.20;;;28.60;99.90;;;;;;5118250;28;20194;-88
2021/08/14 09:54:11;;;;;;;8.17;4.80;;;28.70;99.90;;;;;;5117539;28;20213;-87
2021/08/14 09:56:36;;;;;;;7.47;5.07;;;28.90;99.90;;;;;;5118118;28;20206;-88
2021/08/14 09:59:07;;;;;;;8.33;4.60;;;29.00;99.90;;;;;;5119444;28;20209;-87
2021/08/14 10:01:36;;;;;;;11.27;4.63;;;29.30;99.90;;;;;;5119283;28;20198;-87
2021/08/14 10:04:03;;;;;;;8.43;4.60;;;29.30;99.90;;;;;;5118444;28;20189;-87
2021/08/14 10:06:29;;;;;;;8.40;5.17;;;29.40;99.90;;;;;;5119356;28;20218;-87
2021/08/14 10:08:57;;;;;;;7.10;4.70;;;29.40;99.90;;;;;;5117882;28;20182;-87
2021/08/14 10:11:23;;;;;;;8.33;5.60;;;29.50;99.90;;;;;;5117378;28;20177;-87
2021/08/14 10:13:50;;;;;;;10.53;4.60;;;29.40;99.90;;;;;;5117587;28;20271;-88
2021/08/14 10:16:17;;;;;;;7.60;4.93;;;29.50;99.90;;;;;;5117957;28;20234;-87
2021/08/14 10:18:44;;;;;;;8.40;4.97;;;29.50;99.90;;;;;;5120849;28;20204;-87
2021/08/14 10:21:13;;;;;;;8.40;4.83;;;29.60;99.90;;;;;;5124231;28;20192;-85
2021/08/14 10:23:40;;;;;;;10.37;5.27;;;29.80;99.90;;;;;;5135024;28;20173;-87
2021/08/14 10:26:07;;;;;;;6.90;5.00;;;29.90;99.90;;;;;;5139732;28;20209;-86
2021/08/14 10:29:06;;;;;;;6.40;4.93;;;30.10;99.90;;;;;;5116975;28;20275;-86
2021/08/14 10:31:34;;;;;;;10.10;4.40;;;30.20;99.90;;;;;;5082747;28;20266;-85
2021/08/14 10:34:20;;;;;;;5.33;4.40;;;30.50;99.90;;;;;;5117511;27;20641;-86
2021/08/14 10:36:47;;;;;;;5.97;4.73;;;30.60;99.90;;;;;;5116065;28;20203;-86
2021/08/14 10:39:33;;;;;;;9.63;4.70;;;30.70;99.90;;;;;;5117641;28;20178;-86
2021/08/14 10:42:02;;;;;;;7.47;5.00;;;30.80;99.90;;;;;;5117181;28;20154;-86
2021/08/14 10:44:37;;;;;;;9.27;5.03;;;30.80;99.90;;;;;;5115961;28;20231;-86
2021/08/14 10:47:04;;;;;;;8.77;5.40;;;30.70;99.90;;;;;;5116453;28;20208;-86
2021/08/14 10:49:32;;;;;;;8.23;4.57;;;30.70;99.90;;;;;;5117399;28;20266;-86
2021/08/14 10:52:01;;;;;;;8.73;4.73;;;30.80;99.90;;;;;;5117609;28;20178;-85
2021/08/14 10:54:30;;;;;;;7.97;4.40;;;31.00;99.90;;;;;;5121196;28;20185;-86
2021/08/14 10:57:01;;;;;;;6.07;4.80;;;31.10;99.90;;;;;;5129612;28;20179;-86
2021/08/14 10:59:38;;;;;;;10.30;4.60;;;31.30;99.90;;;;;;5138660;28;20162;-85
2021/08/14 11:02:07;;;;;;;8.50;4.60;;;31.50;99.90;;;;;;5134146;28;20218;-86
2021/08/14 11:04:37;;;;;;;10.63;4.80;;;31.50;99.90;;;;;;5116909;28;20214;-86
2021/08/14 11:07:32;;;;;;;9.13;5.57;;;31.40;99.90;;;;;;5116947;28;20291;-86
2021/08/14 11:10:09;;;;;;;9.07;4.67;;;31.50;99.90;;;;;;5103850;28;20262;-86
2021/08/14 11:12:47;;;;;;;7.10;4.83;;;31.50;99.90;;;;;;5116210;28;20645;-86
2021/08/14 11:15:23;;;;;;;10.27;4.43;;;31.60;99.90;;;;;;5117129;28;20217;-86
2021/08/14 11:17:54;;;;;;;12.10;5.03;;;31.50;99.90;;;;;;5115834;28;20633;-86
2021/08/14 11:20:19;;;;;;;10.20;4.70;;;31.60;99.90;;;;;;5115776;28;20537;-86
2021/08/14 11:22:55;;;;;;;13.50;4.80;;;31.70;99.90;;;;;;5116014;28;20268;-86
2021/08/14 11:25:31;;;;;;;6.27;4.77;;;31.70;99.90;;;;;;5116729;28;20200;-86
2021/08/14 11:28:08;;;;;;;11.60;5.63;;;31.90;99.90;;;;;;5115935;28;20168;-86
2021/08/14 11:30:47;;;;;;;10.07;5.00;;;31.90;99.90;;;;;;5115529;28;20187;-86
2021/08/14 11:33:15;;;;;;;8.37;5.13;;;32.00;99.90;;;;;;5115572;28;20176;-86
2021/08/14 11:35:42;;;;;;;8.50;5.37;;;32.10;99.90;;;;;;5116242;28;20665;-86
2021/08/14 11:38:12;;;;;;;8.43;4.43;;;32.10;99.90;;;;;;5116303;28;20181;-86
2021/08/14 11:40:44;;;;;;;7.83;4.53;;;32.30;99.90;;;;;;5115481;28;20180;-86
2021/08/14 11:43:17;;;;;;;7.33;4.67;;;32.40;99.90;;;;;;5115683;28;20656;-86
2021/08/14 11:45:46;;;;;;;9.77;4.60;;;32.20;99.90;;;;;;5116878;28;20214;-86
2021/08/14 11:48:13;;;;;;;10.00;5.57;;;32.20;99.90;;;;;;5114999;28;20182;-86
2021/08/14 11:50:45;;;;;;;9.20;5.13;;;32.30;99.90;;;;;;5114708;28;20170;-86
2021/08/14 11:53:24;;;;;;;12.23;5.73;;;32.20;99.90;;;;;;5115668;28;20161;-86
2021/08/14 11:56:10;;;;;;;9.17;5.10;;;32.30;99.90;;;;;;5115957;28;20234;-86
2021/08/14 11:58:37;;;;;;;9.43;4.77;;;32.40;99.90;;;;;;5116372;28;20254;-86
2021/08/14 12:01:04;;;;;;;10.13;5.33;;;32.60;99.90;;;;;;5114784;28;20202;-86
2021/08/14 12:03:30;;;;;;;11.70;4.90;;;32.80;99.90;;;;;;5114373;28;20183;-86
2021/08/14 12:06:12;;;;;;;9.97;5.17;;;32.90;99.90;;;;;;5114683;28;20354;-86
2021/08/14 12:08:40;;;;;;;9.20;5.37;;;32.80;99.90;;;;;;5114762;28;20177;-86
2021/08/14 12:11:12;;;;;;;8.93;4.83;;;32.60;99.90;;;;;;5118250;28;20174;-86
2021/08/14 12:13:39;;;;;;;8.73;5.30;;;32.40;99.90;;;;;;5114886;28;20269;-86
2021/08/14 12:16:19;;;;;;;8.40;4.60;;;32.80;99.90;;;;;;5114914;28;20202;-86
2021/08/14 12:18:50;;;;;;;14.03;5.37;;;32.70;99.90;;;;;;5114579;28;20197;-86
2021/08/14 12:21:18;;;;;;;10.23;4.70;;;32.60;99.90;;;;;;5115805;28;20175;-86
2021/08/14 12:23:47;;;;;;;8.63;4.57;;;32.60;99.90;;;;;;5115280;28;20175;-85
2021/08/14 12:26:24;;;;;;;10.60;4.67;;;32.60;99.90;;;;;;5118452;28;20206;-86
2021/08/14 12:29:01;;;;;;;9.70;5.33;;;32.80;99.90;;;;;;5135190;28;20194;-87
2021/08/14 12:31:27;;;;;;;7.13;4.70;;;;;;;;;;5131650;28;20183;-86
2021/08/14 12:33:58;;;;;;;10.73;5.70;;;32.90;99.90;;;;;;5114612;28;20181;-85
2021/08/14 12:36:38;;;;;;;9.70;5.37;;;33.00;99.90;;;;;;5114474;28;20223;-86
2021/08/14 12:39:06;;;;;;;7.00;4.80;;;32.80;99.90;;;;;;5114234;28;20211;-86
2021/08/14 12:41:39;;;;;;;11.07;5.07;;;32.80;99.90;;;;;;5114228;28;20244;-85
2021/08/14 12:44:06;;;;;;;8.40;5.03;;;32.60;99.90;;;;;;5114460;28;20219;-86